Airfield :
LOGIN :

Register | Disclaimer

   EN    FR    IT 

 










Legend :    VFR   Marginal VFR   IFR   Intensive IFR   Very Intensive IFR
Visi :
Ceiling :
>= 8 km
>= 3000ft
5 to 8 km
1000 to 3000 ft
1500m to 5 km
500 to 1000 ft
800 to 1500m
200 to 500 ft
< 800m
< 200 ft
Symbols :   Thunderstorms  Fog  Heavy snow  Heavy precipitations  Wind > 20 kt
SIGMETs :     Misc.  Thunderstorms  Icing  Turbulence  Mountain Waves  Volcanic Ashes






- Airport Elevation : 283 ft
- IATA code : KKN


ENKR - Kirkenes , Høybuktmoen

CURRENT METAR :
  • 191350Z 06010KT 9999 FEW040 M05/M10 Q1012 RMK WIND 731FT 05015KT

EXPIRED METARs :
  • 191320Z VRB03KT 9999 -SN FEW025 SCT049 BKN059 M06/M10 Q1011 RMK WIND 731FT 04010KT
  • 191250Z VRB02KT CAVOK M07/M10 Q1011 RMK WIND 731FT 08008KT
  • 191220Z 17005KT 9999 FEW021 SCT057 M07/M11 Q1011 RMK WIND 731FT 10009KT
  • 191150Z 07005KT 9999 FEW035 SCT057 M06/M11 Q1011 RMK WIND 731FT 07012KT
  • 191120Z 07007KT 9999 VCSH SCT038 M06/M11 Q1011 RMK WIND 731FT 06015KT
  • 191050Z 06008KT 9999 FEW035 M05/M11 Q1011 RMK WIND 731FT 07018KT

TAF AMD TAF ENKR
Valid from the 19 at 13:00 until the 19 at 21:00 UTC


191342Z 1913/1921 24008KT 9999 FEW025
TEMPO 1913/1921 06010KT 2000 SHSN VV008
TEMPO 1913/1921 FEW015CB SCT040



MET'MAP, your aeronautical weather chart ! - Copyright ORBIFLY December 2007 - Disclaimer

ORBIFLY MET'MAP TEAM :

Programming & Development : Alexandra Zaïnal
Concept & original design : Baudouin d'Aumeries
Assistance for programming : Marc-Olivier Méhu
Technical & hardware support : Manuel Goepfert

Contact : metmap@orbifly.com




SOURCES & CREDITS :

   NOAA